Main page
METAR-TAF:

METAR-TAF

Airports :

Salt Lake City International Airport

Salt Lake City, Utah, United States

latitude: 40-46-41N, longitude: 111-58-10W, elevation: 1288 m

Current weather observation

The report was made 55 minutes ago, at 04:54 UTC
Wind 4 kt from the South
Temperature -2°C
Humidity 59%
Pressure 1037 hPa
Visibility: 16.1 km
Clear sky

METAR: KSLC 130454Z 18004KT 10SM CLR M02/M09 A3061 RMK AO2 SLP384 T10171094 $

Time: 22:49 (05:49 UTC)

Forecast

The report was made 27 minutes ago, at 05:22 UTC
Forecast valid from 13 at 06 UTC to 14 at 12 UTC
Wind 5 kt from the South/Southeast
Visibility: 10 km
Clear sky
From 13 at 1900 UTC
Wind 7 kt from the Northwest
Visibility: 10 km
Clear sky
From 14 at 0300 UTC
Wind 5 kt from the South/Southeast
Visibility: 10 km
Scattered clouds at a height of 18000 ft

TAF: KSLC 130522Z 1306/1412 16005KT P6SM SKC FM131900 32007KT P6SM SKC FM140300 15005KT P6SM SCT180

Weather observations and forecasts of more than 4000 airports (METAR and TAF reports).

The available stations are represented by yellow and red dots on the map.

Hover mouse over dot to see the name of the station.

Then click to see weather observations and forecasts.

To change the map : click on the green buttons with a black cross to zoom in, on the green button with a dash to zoom out, or on the green arrows for adjacent maps.


METAR-TAF: